createdAt,value
2023-02-17T00:03:43.572Z,101.28
2023-02-17T00:08:07.578Z,38.45
2023-02-17T00:12:32.851Z,20.90
2023-02-17T00:16:56.742Z,54.92
2023-02-17T00:21:23.656Z,82.43
2023-02-17T00:25:47.579Z,102.07
2023-02-17T00:30:13.478Z,125.70
2023-02-17T00:34:37.673Z,128.27
2023-02-17T00:39:01.422Z,152.07
2023-02-17T00:43:25.312Z,142.00
2023-02-17T00:47:52.332Z,176.38
2023-02-17T00:52:16.308Z,113.47
2023-02-17T00:56:40.437Z,148.43
2023-02-17T01:01:04.618Z,84.95
2023-02-17T01:05:30.010Z,79.15
2023-02-17T01:09:54.027Z,162.87
2023-02-17T01:14:18.416Z,112.88
2023-02-17T01:18:42.687Z,99.78
2023-02-17T01:23:12.362Z,93.63
2023-02-17T01:27:36.928Z,107.80
2023-02-17T01:38:34.545Z,116.47
2023-02-17T01:42:58.500Z,26.43
2023-02-17T01:47:22.523Z,140.98
2023-02-17T01:51:49.540Z,103.38
2023-02-17T01:56:16.573Z,167.57
2023-02-17T02:00:41.479Z,54.47
2023-02-17T02:05:07.111Z,87.70
2023-02-17T02:09:36.588Z,44.87
2023-02-17T02:14:02.892Z,45.42
2023-02-17T02:18:43.166Z,28.05
2023-02-17T02:23:49.859Z,311.42
2023-02-17T02:28:28.201Z,195.67
2023-02-17T02:33:00.232Z,159.70
2023-02-17T02:37:29.176Z,230.23
2023-02-17T02:41:56.681Z,255.93
2023-02-17T02:46:21.851Z,286.15
2023-02-17T02:51:14.739Z,390.40
2023-02-17T02:55:46.274Z,389.57
2023-02-17T03:00:13.701Z,311.40
2023-02-17T03:04:36.462Z,385.42
2023-02-17T03:09:02.396Z,301.35
2023-02-17T03:13:21.127Z,293.63
2023-02-17T03:17:41.009Z,301.75
2023-02-17T03:22:05.341Z,434.90
2023-02-17T03:26:24.730Z,401.60
2023-02-17T03:30:44.443Z,400.60
2023-02-17T03:35:02.319Z,449.13
2023-02-17T03:39:26.256Z,426.10
2023-02-17T03:43:51.870Z,359.08
2023-02-17T03:48:15.650Z,331.23
2023-02-17T03:52:39.514Z,309.98
2023-02-17T03:57:03.649Z,283.93
2023-02-17T04:01:29.016Z,245.23
2023-02-17T04:05:54.555Z,274.35
2023-02-17T04:10:18.851Z,333.00
2023-02-17T04:14:42.685Z,330.55
2023-02-17T04:19:08.461Z,261.60
2023-02-17T04:23:32.532Z,309.23
2023-02-17T04:27:56.274Z,331.67
2023-02-17T04:32:20.141Z,352.38
2023-02-17T04:36:45.475Z,370.25
2023-02-17T04:41:09.392Z,342.20
2023-02-17T04:45:33.394Z,329.70
2023-02-17T04:49:57.351Z,317.70
2023-02-17T04:54:23.327Z,309.77
2023-02-17T04:58:47.342Z,260.70
2023-02-17T05:03:11.345Z,231.10
2023-02-17T05:07:35.204Z,229.50
2023-02-17T05:12:03.044Z,226.63
2023-02-17T05:16:27.095Z,195.73
2023-02-17T05:20:51.305Z,211.38
2023-02-17T05:25:15.485Z,230.37
2023-02-17T05:29:40.908Z,197.10
2023-02-17T05:34:04.830Z,191.43
2023-02-17T05:38:28.790Z,211.80
2023-02-17T05:42:52.816Z,289.83
2023-02-17T05:47:18.056Z,200.77
2023-02-17T05:51:41.914Z,248.93
2023-02-17T05:56:06.459Z,226.10
2023-02-17T06:00:30.572Z,192.10
2023-02-17T06:04:55.964Z,283.25
2023-02-17T06:09:20.445Z,189.67
2023-02-17T06:13:44.271Z,199.75
2023-02-17T06:18:08.222Z,255.50
2023-02-17T06:22:33.552Z,358.17
2023-02-17T06:26:57.573Z,278.35
2023-02-17T06:31:21.373Z,431.05
2023-02-17T06:35:49.602Z,393.13
2023-02-17T06:40:16.072Z,419.15
2023-02-17T06:44:39.975Z,417.80
2023-02-17T06:49:03.787Z,414.38
2023-02-17T06:53:27.869Z,342.17
2023-02-17T06:57:53.252Z,391.75
2023-02-17T07:02:17.291Z,294.83
2023-02-17T07:06:41.932Z,334.43
2023-02-17T07:11:07.095Z,318.85
2023-02-17T07:15:32.428Z,282.63
2023-02-17T07:19:56.523Z,265.03
2023-02-17T07:24:20.443Z,341.48
2023-02-17T07:28:44.562Z,355.92
2023-02-17T07:33:10.084Z,276.42
2023-02-17T07:37:34.191Z,250.00
2023-02-17T07:42:01.072Z,232.23
2023-02-17T07:46:25.744Z,270.02
2023-02-17T07:50:50.953Z,238.27
2023-02-17T07:55:15.045Z,71.60
2023-02-17T07:59:39.257Z,305.48
2023-02-17T08:04:03.818Z,323.47
2023-02-17T08:08:47.175Z,353.67
2023-02-17T08:13:21.428Z,170.27
2023-02-17T08:17:45.716Z,265.27
2023-02-17T08:22:09.794Z,243.00
2023-02-17T08:26:35.197Z,243.07
2023-02-17T08:30:59.289Z,240.30
2023-02-17T08:35:26.574Z,247.03
2023-02-17T08:39:50.702Z,282.23
2023-02-17T08:44:18.773Z,255.38
2023-02-17T08:48:45.306Z,319.77
2023-02-17T08:53:09.517Z,314.67
2023-02-17T08:57:34.516Z,305.83
2023-02-17T09:02:00.322Z,309.13
2023-02-17T09:06:36.949Z,295.30
2023-02-17T09:11:01.301Z,238.35
2023-02-17T09:15:25.478Z,237.02
2023-02-17T09:19:50.803Z,275.10
2023-02-17T09:24:15.128Z,194.02
2023-02-17T09:28:39.962Z,258.85
2023-02-17T09:33:05.381Z,249.43
2023-02-17T09:37:30.940Z,277.80
2023-02-17T09:41:55.529Z,283.80
2023-02-17T09:46:24.402Z,235.13
2023-02-17T09:50:55.254Z,164.80
2023-02-17T09:55:26.382Z,233.48
2023-02-17T09:59:55.748Z,216.95
2023-02-17T10:04:24.338Z,152.33
2023-02-17T10:08:53.742Z,103.72
2023-02-17T10:13:21.346Z,113.20
2023-02-17T10:17:51.986Z,208.00
2023-02-17T10:22:19.387Z,169.23
2023-02-17T10:27:00.060Z,189.00
2023-02-17T10:31:44.277Z,257.80
2023-02-17T10:36:20.120Z,292.00
2023-02-17T10:40:48.195Z,350.98
2023-02-17T10:45:22.066Z,465.33
2023-02-17T10:49:51.423Z,446.63
2023-02-17T10:54:25.885Z,227.15
2023-02-17T10:58:56.117Z,224.18
2023-02-17T11:03:21.412Z,268.07
2023-02-17T11:07:47.929Z,261.38
2023-02-17T11:12:14.740Z,257.38
2023-02-17T11:16:41.539Z,251.50
2023-02-17T11:21:08.434Z,321.50
2023-02-17T11:25:35.660Z,280.65
2023-02-17T11:30:09.095Z,228.98
2023-02-17T11:34:38.027Z,250.27
2023-02-17T11:39:20.600Z,254.07
2023-02-17T11:43:56.416Z,216.55
2023-02-17T11:48:41.280Z,289.87
2023-02-17T11:53:27.374Z,276.05
2023-02-17T11:58:11.230Z,85.80
2023-02-17T12:03:03.706Z,311.95
2023-02-17T12:07:54.094Z,365.27
2023-02-17T12:12:25.431Z,258.75
2023-02-17T12:17:00.554Z,51.35
2023-02-17T12:21:49.382Z,298.80
2023-02-17T12:26:20.952Z,319.50
2023-02-17T12:30:57.982Z,145.98
2023-02-17T12:35:25.440Z,202.17
2023-02-17T12:39:59.120Z,178.35
2023-02-17T12:44:28.395Z,144.32
2023-02-17T12:48:59.898Z,147.65
2023-02-17T12:53:41.873Z,256.33
2023-02-17T12:58:13.162Z,110.15
2023-02-17T13:02:37.505Z,27.02
2023-02-17T13:07:09.505Z,118.93
2023-02-17T13:11:36.028Z,137.30
2023-02-17T13:16:11.225Z,126.10
2023-02-17T13:20:56.985Z,147.07
2023-02-17T13:25:36.308Z,172.55
2023-02-17T13:30:04.728Z,177.55
2023-02-17T13:34:33.879Z,272.67
2023-02-17T13:39:01.722Z,282.87
2023-02-17T13:43:25.730Z,145.23
2023-02-17T13:47:51.695Z,89.88
2023-02-17T13:52:22.834Z,146.00
2023-02-17T13:56:52.508Z,158.02
2023-02-17T14:01:18.444Z,33.03
2023-02-17T14:05:45.774Z,77.10
2023-02-17T14:10:23.149Z,303.10
2023-02-17T14:14:47.278Z,277.73
2023-02-17T14:19:13.346Z,217.02
2023-02-17T14:23:48.897Z,187.80
2023-02-17T14:28:22.041Z,94.80
2023-02-17T14:32:45.860Z,55.63
2023-02-17T14:37:12.110Z,243.03
2023-02-17T14:41:36.066Z,195.65
2023-02-17T14:46:01.388Z,300.40
2023-02-17T14:50:25.538Z,43.77
2023-02-17T14:54:49.444Z,93.10
2023-02-17T14:59:13.432Z,29.42
2023-02-17T15:03:38.796Z,234.55
2023-02-17T15:08:03.198Z,185.73
2023-02-17T15:12:28.293Z,174.05
2023-02-17T15:16:52.282Z,197.88
2023-02-17T15:21:26.125Z,141.97
2023-02-17T15:25:50.847Z,107.20
2023-02-17T15:30:17.471Z,99.70
2023-02-17T15:34:41.518Z,49.93
2023-02-17T15:39:07.244Z,125.55
2023-02-17T15:48:06.304Z,102.70
2023-02-17T15:52:30.233Z,240.00
2023-02-17T15:56:56.669Z,266.92
2023-02-17T16:01:28.381Z,200.18
2023-02-17T16:05:53.521Z,22.30
2023-02-17T16:10:19.585Z,247.07
2023-02-17T16:14:46.338Z,172.80
2023-02-17T16:19:13.355Z,338.40
2023-02-17T16:23:37.196Z,239.82
2023-02-17T16:28:01.244Z,308.80
2023-02-17T16:32:27.125Z,260.35
2023-02-17T16:36:53.564Z,301.17
2023-02-17T16:41:18.591Z,147.40
2023-02-17T16:45:53.105Z,330.40
2023-02-17T16:50:36.875Z,107.13
2023-02-17T16:55:00.987Z,211.35
2023-02-17T16:59:26.998Z,61.92
2023-02-17T17:03:50.902Z,233.07
2023-02-17T17:08:20.575Z,151.90
2023-02-17T17:12:46.365Z,204.60
2023-02-17T17:17:12.432Z,211.05
2023-02-17T17:21:36.233Z,159.17
2023-02-17T17:26:01.852Z,60.70
2023-02-17T17:30:29.048Z,91.55
2023-02-17T17:34:53.088Z,62.27
2023-02-17T17:39:18.993Z,85.32
2023-02-17T17:43:45.677Z,94.18
2023-02-17T17:48:13.387Z,71.97
2023-02-17T17:52:37.232Z,114.30
2023-02-17T17:57:01.156Z,136.00
2023-02-17T18:01:26.509Z,213.50
2023-02-17T18:05:50.650Z,98.20
2023-02-17T18:10:15.470Z,41.90
2023-02-17T18:14:45.183Z,197.63
2023-02-17T18:19:10.476Z,177.30
2023-02-17T18:23:37.437Z,77.57
2023-02-17T18:28:01.349Z,214.00
2023-02-17T18:32:25.231Z,291.03
2023-02-17T18:36:50.478Z,419.60
2023-02-17T18:41:19.192Z,53.03
2023-02-17T18:45:42.975Z,14.38
2023-02-17T18:50:08.730Z,423.40
2023-02-17T19:10:54.096Z,159.53
2023-02-17T19:15:20.931Z,6.93
2023-02-17T19:19:45.003Z,7.28
2023-02-17T19:24:09.548Z,4.93
2023-02-17T19:28:36.425Z,6.47
2023-02-17T19:33:00.390Z,4.85
2023-02-17T19:37:25.222Z,6.93
2023-02-17T19:41:49.319Z,5.43
2023-02-17T19:46:15.689Z,8.48
2023-02-17T19:50:39.985Z,6.63
2023-02-17T19:54:59.744Z,5.97
2023-02-17T19:59:16.919Z,5.38
2023-02-17T20:03:36.916Z,6.43
2023-02-17T20:07:57.307Z,6.57
2023-02-17T20:12:17.641Z,6.00
2023-02-17T20:16:35.343Z,8.02
2023-02-17T20:20:55.243Z,6.10
2023-02-17T20:25:14.343Z,6.53
2023-02-17T20:29:34.104Z,7.03
2023-02-17T20:33:53.871Z,6.80
2023-02-17T20:38:13.291Z,6.77
2023-02-17T20:42:32.776Z,6.35
2023-02-17T20:46:57.333Z,6.88
2023-02-17T20:51:21.516Z,7.20
2023-02-17T20:55:47.459Z,10.32
2023-02-17T21:00:16.836Z,9.05
2023-02-17T21:04:40.949Z,10.13
2023-02-17T21:09:07.764Z,10.37
2023-02-17T21:13:33.186Z,8.00
2023-02-17T21:17:57.026Z,8.80
2023-02-17T21:22:20.966Z,8.33
2023-02-17T21:26:44.938Z,10.25
2023-02-17T21:31:10.888Z,7.63
2023-02-17T21:35:34.926Z,6.83
2023-02-17T21:39:59.146Z,4.68
2023-02-17T21:44:40.323Z,7.65
2023-02-17T21:49:05.907Z,6.43
2023-02-17T21:53:29.913Z,7.07
2023-02-17T21:57:54.318Z,223.07
2023-02-17T22:02:18.222Z,284.85
2023-02-17T22:06:43.897Z,274.27
2023-02-17T22:11:07.904Z,264.65
2023-02-17T22:15:26.390Z,265.05
2023-02-17T22:19:50.283Z,283.73
2023-02-17T22:24:16.371Z,273.85
2023-02-17T22:28:40.804Z,243.43
2023-02-17T22:33:04.964Z,224.15
2023-02-17T22:37:28.801Z,237.80
2023-02-17T22:41:54.997Z,260.02
2023-02-17T22:46:21.761Z,241.98
2023-02-17T22:50:45.866Z,176.50
2023-02-17T22:55:09.749Z,154.45
2023-02-17T22:59:34.998Z,120.30
2023-02-17T23:03:59.355Z,339.57
2023-02-17T23:08:23.423Z,192.00
2023-02-17T23:12:47.419Z,209.77
2023-02-17T23:17:14.898Z,280.58
2023-02-17T23:21:43.210Z,265.43
2023-02-17T23:26:07.766Z,256.52
2023-02-17T23:30:31.983Z,280.88
2023-02-17T23:34:57.356Z,266.13
2023-02-17T23:39:21.236Z,289.88
2023-02-17T23:43:45.058Z,180.60
2023-02-17T23:48:09.045Z,202.00
2023-02-17T23:52:35.474Z,198.93
2023-02-17T23:56:59.505Z,206.73
